createdAt,value
2019-01-19T00:01:42.610Z,10.03
2019-01-19T00:04:45.470Z,9.87
2019-01-19T00:07:48.321Z,8.90
2019-01-19T00:10:52.478Z,10.47
2019-01-19T00:13:41.818Z,10.10
2019-01-19T00:16:40.417Z,11.00
2019-01-19T00:19:49.689Z,12.07
2019-01-19T00:22:42.717Z,12.07
2019-01-19T00:25:54.813Z,12.13
2019-01-19T00:28:30.685Z,11.30
2019-01-19T00:31:27.477Z,11.77
2019-01-19T00:34:34.161Z,12.43
2019-01-19T00:37:37.725Z,13.43
2019-01-19T00:40:56.435Z,11.67
2019-01-19T00:43:43.142Z,11.37
2019-01-19T00:46:41.837Z,12.17
2019-01-19T00:49:29.533Z,13.53
2019-01-19T00:52:30.747Z,13.20
2019-01-19T00:55:20.475Z,13.13
2019-01-19T00:58:16.639Z,14.63
2019-01-19T01:00:52.507Z,14.73
2019-01-19T01:03:50.139Z,15.47
2019-01-19T01:06:47.181Z,15.93
2019-01-19T01:09:43.739Z,16.30
2019-01-19T01:12:50.981Z,16.30
2019-01-19T01:15:55.046Z,15.17
2019-01-19T01:18:55.849Z,16.33
2019-01-19T01:21:46.849Z,15.97
2019-01-19T01:24:22.829Z,15.70
2019-01-19T01:27:00.177Z,15.87
2019-01-19T01:30:11.401Z,15.10
2019-01-19T01:32:50.568Z,14.60
2019-01-19T01:35:58.939Z,15.73
2019-01-19T01:39:10.245Z,14.47
2019-01-19T01:41:59.973Z,14.93
2019-01-19T01:44:39.129Z,14.80
2019-01-19T01:48:03.219Z,15.53
2019-01-19T01:51:18.341Z,16.60
2019-01-19T01:54:17.590Z,15.47
2019-01-19T01:56:45.149Z,15.17
2019-01-19T01:59:21.686Z,15.00
2019-01-19T02:02:30.259Z,16.63
2019-01-19T02:05:41.949Z,16.27
2019-01-19T02:08:26.648Z,16.07
2019-01-19T02:11:16.785Z,15.67
2019-01-19T02:14:16.823Z,15.67
2019-01-19T02:17:08.345Z,15.67
2019-01-19T02:20:12.121Z,14.53
2019-01-19T02:23:17.471Z,14.20
2019-01-19T02:26:07.303Z,14.90
2019-01-19T02:29:12.809Z,14.40
2019-01-19T02:31:52.657Z,15.20
2019-01-19T02:35:10.897Z,15.47
2019-01-19T02:38:16.883Z,14.70
2019-01-19T02:41:39.465Z,14.70
2019-01-19T02:44:35.549Z,14.83
2019-01-19T02:47:42.278Z,14.73
2019-01-19T02:50:27.600Z,14.67
2019-01-19T02:53:17.614Z,16.20
2019-01-19T02:56:25.782Z,15.80
2019-01-19T02:59:29.011Z,15.57
2019-01-19T03:02:37.107Z,15.13
2019-01-19T03:05:29.049Z,14.67
2019-01-19T03:08:32.578Z,15.60
2019-01-19T03:11:26.422Z,15.37
2019-01-19T03:14:20.823Z,15.30
2019-01-19T03:17:35.791Z,16.03
2019-01-19T03:20:21.897Z,15.53
2019-01-19T03:22:59.257Z,15.03
2019-01-19T03:26:04.129Z,15.37
2019-01-19T03:29:17.052Z,13.17
2019-01-19T03:32:35.444Z,14.87
2019-01-19T03:35:42.153Z,14.83
2019-01-19T03:38:21.567Z,15.10
2019-01-19T03:41:16.787Z,14.87
2019-01-19T03:44:36.757Z,15.23
2019-01-19T03:47:55.330Z,16.50
2019-01-19T03:50:44.524Z,14.63
2019-01-19T03:53:38.471Z,15.53
2019-01-19T03:56:45.600Z,16.03
2019-01-19T03:59:57.258Z,15.50
2019-01-19T04:03:01.376Z,15.70
2019-01-19T04:05:55.161Z,15.67
2019-01-19T04:09:00.732Z,14.93
2019-01-19T04:12:08.160Z,16.03
2019-01-19T04:15:04.952Z,14.43
2019-01-19T04:18:07.699Z,16.17
2019-01-19T04:21:38.077Z,16.43
2019-01-19T04:24:16.357Z,15.60
2019-01-19T04:26:46.317Z,15.60
2019-01-19T04:29:13.809Z,16.03
2019-01-19T04:31:41.309Z,15.40
2019-01-19T04:34:09.008Z,15.67
2019-01-19T04:36:36.914Z,17.50
2019-01-19T04:39:08.719Z,16.63
2019-01-19T04:41:36.236Z,16.13
2019-01-19T04:44:03.977Z,16.80
2019-01-19T04:46:31.512Z,15.03
2019-01-19T04:48:59.091Z,17.13
2019-01-19T04:51:26.576Z,16.87
2019-01-19T04:53:54.110Z,16.03
2019-01-19T04:56:21.621Z,15.53
2019-01-19T04:58:49.094Z,16.47
2019-01-19T05:01:16.614Z,16.13
2019-01-19T05:03:44.109Z,15.87
2019-01-19T05:06:12.457Z,16.03
2019-01-19T05:08:40.278Z,16.60
2019-01-19T05:11:07.759Z,16.27
2019-01-19T05:13:35.268Z,16.43
2019-01-19T05:16:02.790Z,15.47
2019-01-19T05:18:30.290Z,15.10
2019-01-19T05:20:57.985Z,15.70
2019-01-19T05:23:25.613Z,16.77
2019-01-19T05:25:53.105Z,16.73
2019-01-19T05:28:20.592Z,16.77
2019-01-19T05:30:48.144Z,14.50
2019-01-19T05:33:15.629Z,15.77
2019-01-19T05:35:43.135Z,17.57
2019-01-19T05:38:10.676Z,17.47
2019-01-19T05:40:38.171Z,18.07
2019-01-19T05:43:05.771Z,17.87
2019-01-19T05:45:33.286Z,16.17
2019-01-19T05:48:00.769Z,18.03
2019-01-19T05:50:28.267Z,17.93
2019-01-19T05:52:55.809Z,15.80
2019-01-19T05:55:23.306Z,15.80
2019-01-19T05:57:50.809Z,15.70
2019-01-19T06:00:21.834Z,17.57
2019-01-19T06:02:49.355Z,16.57
2019-01-19T06:05:17.357Z,16.53
2019-01-19T06:07:45.033Z,14.63
2019-01-19T06:10:13.953Z,15.40
2019-01-19T06:12:41.465Z,16.47
2019-01-19T06:15:11.697Z,16.53
2019-01-19T06:17:39.218Z,16.43
2019-01-19T06:20:07.847Z,15.10
2019-01-19T06:22:35.343Z,16.33
2019-01-19T06:25:03.335Z,16.90
2019-01-19T06:27:30.833Z,16.37
2019-01-19T06:29:58.358Z,19.53
2019-01-19T06:32:25.881Z,16.47
2019-01-19T06:34:53.406Z,15.07
2019-01-19T06:37:20.959Z,15.97
2019-01-19T06:39:48.447Z,15.70
2019-01-19T06:42:15.948Z,14.50
2019-01-19T06:44:43.745Z,16.70
2019-01-19T06:47:11.233Z,14.87
2019-01-19T06:49:38.738Z,15.57
2019-01-19T06:52:06.308Z,17.57
2019-01-19T06:54:33.916Z,16.70
2019-01-19T06:57:01.396Z,15.20
2019-01-19T06:59:28.957Z,15.43
2019-01-19T07:01:56.460Z,13.57
2019-01-19T07:04:23.973Z,14.27
2019-01-19T07:06:51.524Z,14.63
2019-01-19T07:09:19.013Z,14.33
2019-01-19T07:11:46.916Z,12.70
2019-01-19T07:14:14.435Z,13.07
2019-01-19T07:16:41.942Z,13.20
2019-01-19T07:19:09.464Z,12.33
2019-01-19T07:21:36.965Z,13.60
2019-01-19T07:24:04.500Z,14.47
2019-01-19T07:26:35.036Z,15.00
2019-01-19T07:29:02.521Z,23.10
2019-01-19T07:31:30.062Z,19.67
2019-01-19T07:33:57.565Z,16.63
2019-01-19T07:36:25.078Z,13.70
2019-01-19T07:38:52.627Z,12.70
2019-01-19T07:41:20.134Z,11.40
2019-01-19T07:43:47.666Z,11.97
2019-01-19T07:46:15.608Z,11.87
2019-01-19T07:48:43.104Z,13.10
2019-01-19T07:51:11.550Z,11.93
2019-01-19T07:53:39.181Z,12.93
2019-01-19T07:56:06.811Z,12.10
2019-01-19T07:58:34.461Z,12.63
2019-01-19T08:01:02.110Z,11.80
2019-01-19T08:03:29.727Z,11.73
2019-01-19T08:05:57.334Z,11.97
2019-01-19T08:08:24.887Z,14.03
2019-01-19T08:10:52.416Z,12.83
2019-01-19T08:13:20.210Z,12.83
2019-01-19T08:15:47.756Z,14.00
2019-01-19T08:18:15.334Z,11.77
2019-01-19T08:20:42.844Z,14.13
2019-01-19T08:23:13.583Z,13.40
2019-01-19T08:25:41.114Z,15.37
2019-01-19T08:28:08.640Z,14.43
2019-01-19T08:30:36.240Z,12.60
2019-01-19T08:33:03.758Z,15.43
2019-01-19T08:35:34.111Z,12.57
2019-01-19T08:38:01.682Z,14.10
2019-01-19T08:40:34.602Z,13.63
2019-01-19T08:43:29.784Z,12.30
2019-01-19T08:45:58.615Z,18.00
2019-01-19T08:48:26.114Z,13.53
2019-01-19T08:50:53.668Z,14.30
2019-01-19T08:53:21.179Z,12.93
2019-01-19T08:55:48.691Z,12.80
2019-01-19T08:58:16.877Z,15.27
2019-01-19T09:00:44.355Z,14.83
2019-01-19T09:03:11.874Z,14.50
2019-01-19T09:05:39.456Z,13.77
2019-01-19T09:08:06.974Z,11.93
2019-01-19T09:10:34.529Z,12.97
2019-01-19T09:13:02.098Z,12.23
2019-01-19T09:15:29.702Z,13.00
2019-01-19T09:17:57.244Z,12.80
2019-01-19T09:20:24.840Z,10.70
2019-01-19T09:22:56.442Z,9.50
2019-01-19T09:25:23.958Z,11.00
2019-01-19T09:27:51.512Z,11.17
2019-01-19T09:30:19.346Z,12.33
2019-01-19T09:32:46.989Z,10.87
2019-01-19T09:35:14.554Z,12.50
2019-01-19T09:37:42.113Z,10.87
2019-01-19T09:40:11.312Z,13.17
2019-01-19T09:42:38.781Z,12.03
2019-01-19T09:45:07.202Z,13.33
2019-01-19T09:47:41.370Z,12.83
2019-01-19T09:50:10.553Z,12.53
2019-01-19T09:52:38.062Z,13.67
2019-01-19T09:55:05.856Z,16.03
2019-01-19T09:57:33.398Z,12.87
2019-01-19T10:00:00.906Z,12.27
2019-01-19T10:02:28.432Z,12.83
2019-01-19T10:04:56.044Z,16.53
2019-01-19T10:07:23.555Z,12.30
2019-01-19T10:09:51.077Z,10.50
2019-01-19T10:12:18.653Z,14.60
2019-01-19T10:14:46.272Z,13.47
2019-01-19T10:17:14.046Z,14.47
2019-01-19T10:19:41.671Z,14.73
2019-01-19T10:22:09.235Z,12.73
2019-01-19T10:24:36.773Z,12.97
2019-01-19T10:27:04.351Z,13.53
2019-01-19T10:29:31.941Z,13.63
2019-01-19T10:31:59.474Z,13.60
2019-01-19T10:34:27.076Z,12.97
2019-01-19T10:36:54.599Z,13.17
2019-01-19T10:39:22.146Z,18.73
2019-01-19T10:41:49.722Z,13.53
2019-01-19T10:44:17.270Z,14.33
2019-01-19T10:46:44.779Z,14.00
2019-01-19T10:49:12.669Z,15.97
2019-01-19T10:51:40.237Z,15.37
2019-01-19T10:54:07.746Z,18.13
2019-01-19T10:56:35.303Z,31.20
2019-01-19T10:59:02.888Z,17.47
2019-01-19T11:01:30.414Z,33.30
2019-01-19T11:03:58.009Z,30.50
2019-01-19T11:06:25.581Z,13.43
2019-01-19T11:08:53.104Z,9.80
2019-01-19T11:11:20.691Z,11.17
2019-01-19T11:13:48.263Z,12.40
2019-01-19T11:16:15.824Z,11.27
2019-01-19T11:18:43.401Z,12.50
2019-01-19T11:21:10.978Z,13.43
2019-01-19T11:23:39.869Z,14.13
2019-01-19T11:26:07.746Z,15.63
2019-01-19T11:28:35.305Z,20.13
2019-01-19T11:31:03.048Z,17.23
2019-01-19T11:33:30.662Z,15.40
2019-01-19T11:35:58.263Z,15.10
2019-01-19T11:38:30.147Z,17.77
2019-01-19T11:41:01.810Z,16.10
2019-01-19T11:43:33.207Z,13.53
2019-01-19T11:46:05.051Z,15.00
2019-01-19T11:48:36.022Z,13.73
2019-01-19T11:51:07.435Z,10.33
2019-01-19T11:53:34.976Z,12.43
2019-01-19T11:56:02.547Z,11.50
2019-01-19T11:58:30.135Z,13.93
2019-01-19T12:00:57.800Z,14.80
2019-01-19T12:03:25.373Z,12.17
2019-01-19T12:05:53.102Z,11.07
2019-01-19T12:08:20.618Z,13.70
2019-01-19T12:10:48.162Z,13.70
2019-01-19T12:13:15.762Z,13.53
2019-01-19T12:15:43.410Z,12.80
2019-01-19T12:18:11.090Z,12.93
2019-01-19T12:20:44.342Z,12.17
2019-01-19T12:23:12.172Z,17.10
2019-01-19T12:25:39.864Z,12.83
2019-01-19T12:28:07.479Z,12.43
2019-01-19T12:30:35.130Z,14.00
2019-01-19T12:33:02.707Z,19.23
2019-01-19T12:35:30.286Z,11.40
2019-01-19T12:37:58.168Z,11.70
2019-01-19T12:40:26.496Z,12.03
2019-01-19T12:42:56.751Z,11.40
2019-01-19T12:45:35.086Z,10.50
2019-01-19T12:48:02.675Z,11.67
2019-01-19T12:50:30.289Z,13.70
2019-01-19T12:52:57.915Z,20.27
2019-01-19T12:55:25.512Z,15.87
2019-01-19T12:57:53.285Z,14.90
2019-01-19T13:00:23.219Z,16.33
2019-01-19T13:02:50.901Z,18.43
2019-01-19T13:05:49.615Z,17.27
2019-01-19T13:08:19.374Z,27.13
2019-01-19T13:10:58.831Z,25.47
2019-01-19T13:13:34.500Z,26.10
2019-01-19T13:16:32.030Z,15.47
2019-01-19T13:19:44.818Z,21.13
2019-01-19T13:22:56.348Z,27.00
2019-01-19T13:25:41.768Z,14.77
2019-01-19T13:28:53.936Z,16.57
2019-01-19T13:32:09.601Z,16.80
2019-01-19T13:35:09.408Z,12.97
2019-01-19T13:38:15.690Z,13.70
2019-01-19T13:41:35.890Z,14.53
2019-01-19T13:44:40.467Z,15.27
2019-01-19T13:47:32.320Z,18.63
2019-01-19T13:50:25.231Z,17.43
2019-01-19T13:53:20.860Z,23.23
2019-01-19T13:56:45.475Z,23.73
2019-01-19T13:59:50.479Z,22.30
2019-01-19T14:02:51.972Z,24.20
2019-01-19T14:06:13.706Z,22.03
2019-01-19T14:09:24.882Z,10.53
2019-01-19T14:12:06.933Z,15.33
2019-01-19T14:15:05.286Z,12.00
2019-01-19T14:18:02.983Z,14.77
2019-01-19T14:21:13.343Z,14.23
2019-01-19T14:23:58.821Z,14.17
2019-01-19T14:27:23.037Z,20.27
2019-01-19T14:30:59.294Z,19.07
2019-01-19T14:34:03.293Z,23.33
2019-01-19T14:37:24.861Z,16.07
2019-01-19T14:40:27.538Z,16.60
2019-01-19T14:43:45.811Z,13.57
2019-01-19T14:46:51.313Z,17.43
2019-01-19T14:50:12.997Z,17.17
2019-01-19T14:53:19.198Z,18.30
2019-01-19T14:56:26.861Z,15.80
2019-01-19T14:59:22.226Z,15.77
2019-01-19T15:02:27.436Z,14.83
2019-01-19T15:05:23.317Z,16.77
2019-01-19T15:08:21.887Z,18.67
2019-01-19T15:11:31.231Z,15.50
2019-01-19T15:14:20.082Z,18.50
2019-01-19T15:17:13.959Z,16.03
2019-01-19T15:20:32.031Z,20.80
2019-01-19T15:23:33.711Z,24.03
2019-01-19T15:26:38.868Z,19.60
2019-01-19T15:30:03.158Z,15.37
2019-01-19T15:33:21.672Z,15.57
2019-01-19T15:36:22.449Z,15.73
2019-01-19T15:39:18.524Z,15.27
2019-01-19T15:42:42.863Z,15.00
2019-01-19T15:46:04.429Z,16.70
2019-01-19T15:49:03.341Z,22.47
2019-01-19T15:52:09.903Z,22.40
2019-01-19T15:55:25.327Z,18.50
2019-01-19T15:58:29.390Z,44.67
2019-01-19T16:01:41.462Z,36.33
2019-01-19T16:04:49.551Z,29.00
2019-01-19T16:08:08.239Z,26.03
2019-01-19T16:11:41.515Z,21.10
2019-01-19T16:14:38.620Z,15.90
2019-01-19T16:17:46.417Z,17.60
2019-01-19T16:20:41.696Z,15.73
2019-01-19T16:23:28.149Z,16.37
2019-01-19T16:26:46.157Z,17.70
2019-01-19T16:29:48.829Z,22.13
2019-01-19T16:32:54.546Z,25.53
2019-01-19T16:36:03.881Z,22.03
2019-01-19T16:39:31.124Z,20.93
2019-01-19T16:42:34.490Z,20.87
2019-01-19T16:45:39.689Z,17.50
2019-01-19T16:48:38.073Z,17.83
2019-01-19T16:51:35.800Z,18.83
2019-01-19T16:54:35.511Z,19.67
2019-01-19T16:58:06.762Z,34.70
2019-01-19T17:01:21.068Z,26.23
2019-01-19T17:04:41.845Z,23.63
2019-01-19T17:07:59.901Z,19.53
2019-01-19T17:11:07.491Z,23.00
2019-01-19T17:14:28.640Z,20.30
2019-01-19T17:17:33.625Z,19.47
2019-01-19T17:20:46.093Z,20.13
2019-01-19T17:23:34.417Z,20.23
2019-01-19T17:26:46.309Z,21.80
2019-01-19T17:30:04.442Z,23.47
2019-01-19T17:33:22.221Z,22.00
2019-01-19T17:36:42.741Z,24.13
2019-01-19T17:39:58.002Z,23.40
2019-01-19T17:42:54.142Z,25.03
2019-01-19T17:46:01.634Z,24.67
2019-01-19T17:49:03.151Z,28.70
2019-01-19T17:52:24.853Z,31.00
2019-01-19T17:55:49.041Z,43.73
2019-01-19T17:59:03.053Z,47.47
2019-01-19T18:02:23.775Z,42.67
2019-01-19T18:05:27.421Z,43.77
2019-01-19T18:08:33.930Z,48.77
2019-01-19T18:11:42.989Z,59.97
2019-01-19T18:14:58.286Z,62.40
2019-01-19T18:17:55.777Z,50.67
2019-01-19T18:20:47.770Z,49.17
2019-01-19T18:23:57.892Z,51.63
2019-01-19T18:26:51.865Z,42.87
2019-01-19T18:30:34.383Z,38.67
2019-01-19T18:33:37.234Z,39.40
2019-01-19T18:36:46.085Z,38.77
2019-01-19T18:40:03.132Z,44.77
2019-01-19T18:43:21.734Z,42.10
2019-01-19T18:46:24.215Z,42.63
2019-01-19T18:49:46.298Z,40.57
2019-01-19T18:53:07.717Z,42.77
2019-01-19T18:56:13.585Z,42.70
2019-01-19T18:59:19.221Z,43.13
2019-01-19T19:02:37.902Z,45.57
2019-01-19T19:05:44.418Z,44.73
2019-01-19T19:08:55.727Z,43.20
2019-01-19T19:11:58.086Z,44.00
2019-01-19T19:15:13.423Z,49.37
2019-01-19T19:18:37.095Z,47.37
2019-01-19T19:21:31.741Z,52.77
2019-01-19T19:24:41.133Z,50.77
2019-01-19T19:27:49.255Z,54.60
2019-01-19T19:30:41.206Z,50.37
2019-01-19T19:33:49.367Z,54.07
2019-01-19T19:36:54.482Z,51.57
2019-01-19T19:40:10.202Z,56.13
2019-01-19T19:43:11.485Z,53.50
2019-01-19T19:46:09.997Z,50.60
2019-01-19T19:49:28.457Z,59.63
2019-01-19T19:51:57.361Z,62.37
2019-01-19T19:54:26.094Z,67.20
2019-01-19T19:56:53.684Z,87.57
2019-01-19T19:59:21.345Z,79.63
2019-01-19T20:01:49.031Z,76.50
2019-01-19T20:04:16.646Z,73.83
2019-01-19T20:06:44.292Z,76.93
2019-01-19T20:09:11.971Z,74.90
2019-01-19T20:11:39.724Z,68.07
2019-01-19T20:14:07.667Z,67.13
2019-01-19T20:16:35.639Z,75.90
2019-01-19T20:19:03.623Z,74.97
2019-01-19T20:21:31.181Z,80.80
2019-01-19T20:23:58.721Z,81.57
2019-01-19T20:26:26.370Z,77.93
2019-01-19T20:28:53.910Z,86.67
2019-01-19T20:31:21.485Z,91.37
2019-01-19T20:33:49.079Z,100.00
2019-01-19T20:36:16.652Z,109.37
2019-01-19T20:38:44.161Z,118.13
2019-01-19T20:41:11.755Z,110.60
2019-01-19T20:43:39.282Z,115.13
2019-01-19T20:46:06.795Z,115.07
2019-01-19T20:48:34.433Z,134.43
2019-01-19T20:51:01.995Z,135.33
2019-01-19T20:53:29.521Z,129.07
2019-01-19T20:55:57.052Z,129.80
2019-01-19T20:58:24.591Z,125.07
2019-01-19T21:00:52.262Z,130.07
2019-01-19T21:03:19.796Z,145.00
2019-01-19T21:05:47.347Z,155.20
2019-01-19T21:08:14.956Z,152.67
2019-01-19T21:10:42.422Z,156.43
2019-01-19T21:13:09.942Z,158.77
2019-01-19T21:15:37.521Z,142.60
2019-01-19T21:18:05.226Z,138.80
2019-01-19T21:20:34.368Z,139.53
2019-01-19T21:23:01.971Z,140.73
2019-01-19T21:25:33.702Z,139.13
2019-01-19T21:28:01.291Z,147.40
2019-01-19T21:30:28.860Z,141.43
2019-01-19T21:32:56.393Z,148.30
2019-01-19T21:35:23.947Z,134.33
2019-01-19T21:37:51.490Z,153.13
2019-01-19T21:40:19.011Z,130.77
2019-01-19T21:42:46.578Z,127.70
2019-01-19T21:45:16.615Z,134.87
2019-01-19T21:47:44.154Z,138.33
2019-01-19T21:50:12.007Z,133.77
2019-01-19T21:52:39.544Z,132.40
2019-01-19T21:55:07.447Z,116.27
2019-01-19T21:57:35.029Z,107.33
2019-01-19T22:00:04.008Z,96.20
2019-01-19T22:02:31.561Z,96.07
2019-01-19T22:04:59.157Z,91.50
2019-01-19T22:07:26.673Z,86.67
2019-01-19T22:09:54.284Z,81.70
2019-01-19T22:12:21.851Z,79.37
2019-01-19T22:14:49.402Z,85.60
2019-01-19T22:17:16.962Z,75.97
2019-01-19T22:19:44.511Z,89.97
2019-01-19T22:22:12.074Z,126.73
2019-01-19T22:24:39.670Z,124.07
2019-01-19T22:27:08.004Z,133.83
2019-01-19T22:29:35.571Z,139.50
2019-01-19T22:32:03.254Z,144.70
2019-01-19T22:34:30.785Z,143.03
2019-01-19T22:36:58.305Z,147.10
2019-01-19T22:39:25.909Z,144.90
2019-01-19T22:41:53.441Z,142.53
2019-01-19T22:44:21.014Z,140.77
2019-01-19T22:46:48.541Z,149.90
2019-01-19T22:49:16.058Z,142.97
2019-01-19T22:51:43.585Z,139.53
2019-01-19T22:54:11.179Z,142.67
2019-01-19T22:56:38.785Z,142.70
2019-01-19T22:59:06.313Z,144.20
2019-01-19T23:01:41.237Z,145.20
2019-01-19T23:04:08.779Z,132.27
2019-01-19T23:06:36.344Z,127.40
2019-01-19T23:09:10.021Z,145.27
2019-01-19T23:11:37.724Z,141.27
2019-01-19T23:14:06.265Z,111.27
2019-01-19T23:16:33.883Z,137.03
2019-01-19T23:19:01.501Z,144.47
2019-01-19T23:21:29.096Z,140.33
2019-01-19T23:23:56.700Z,145.67
2019-01-19T23:26:24.195Z,132.97
2019-01-19T23:28:51.728Z,125.17
2019-01-19T23:31:19.312Z,137.97
2019-01-19T23:33:46.857Z,144.93
2019-01-19T23:36:14.357Z,156.33
2019-01-19T23:38:42.072Z,153.53
2019-01-19T23:41:09.577Z,151.50
2019-01-19T23:43:37.086Z,144.50
2019-01-19T23:46:05.511Z,143.37
2019-01-19T23:48:33.080Z,137.77
2019-01-19T23:51:00.635Z,126.07
2019-01-19T23:53:28.140Z,142.27
2019-01-19T23:55:55.685Z,126.77
2019-01-19T23:58:23.179Z,123.37
